sensor_id;sensor_type;location;lat;lon;timestamp;P1;durP1;ratioP1;P2;durP2;ratioP2
42414;SDS011;28058;46.344;17.786;2022-07-21T00:01:11;9.25;;;7.78;;
42414;SDS011;28058;46.344;17.786;2022-07-21T00:03:38;5.32;;;3.03;;
42414;SDS011;28058;46.344;17.786;2022-07-21T00:06:05;4.38;;;2.30;;
42414;SDS011;28058;46.344;17.786;2022-07-21T00:08:33;4.03;;;2.10;;
42414;SDS011;28058;46.344;17.786;2022-07-21T00:11:00;6.47;;;5.07;;
42414;SDS011;28058;46.344;17.786;2022-07-21T00:13:27;27.08;;;24.33;;
42414;SDS011;28058;46.344;17.786;2022-07-21T00:15:54;49.25;;;43.70;;
42414;SDS011;28058;46.344;17.786;2022-07-21T00:18:21;43.42;;;37.85;;
42414;SDS011;28058;46.344;17.786;2022-07-21T00:20:48;30.33;;;26.73;;
42414;SDS011;28058;46.344;17.786;2022-07-21T00:23:16;30.02;;;27.20;;
42414;SDS011;28058;46.344;17.786;2022-07-21T00:25:43;16.23;;;14.13;;
42414;SDS011;28058;46.344;17.786;2022-07-21T00:28:10;7.03;;;6.05;;
42414;SDS011;28058;46.344;17.786;2022-07-21T00:30:37;18.10;;;15.73;;
42414;SDS011;28058;46.344;17.786;2022-07-21T00:33:04;35.00;;;30.83;;
42414;SDS011;28058;46.344;17.786;2022-07-21T00:35:31;43.72;;;35.38;;
42414;SDS011;28058;46.344;17.786;2022-07-21T00:37:58;31.75;;;28.33;;
42414;SDS011;28058;46.344;17.786;2022-07-21T00:40:25;28.55;;;25.42;;
42414;SDS011;28058;46.344;17.786;2022-07-21T00:42:52;48.00;;;39.65;;
42414;SDS011;28058;46.344;17.786;2022-07-21T00:45:19;38.55;;;31.75;;
42414;SDS011;28058;46.344;17.786;2022-07-21T00:47:46;3.50;;;3.05;;
42414;SDS011;28058;46.344;17.786;2022-07-21T00:50:15;26.83;;;23.00;;
42414;SDS011;28058;46.344;17.786;2022-07-21T00:52:44;24.55;;;22.13;;
42414;SDS011;28058;46.344;17.786;2022-07-21T00:55:13;17.15;;;15.27;;
42414;SDS011;28058;46.344;17.786;2022-07-21T00:57:42;5.18;;;4.47;;
42414;SDS011;28058;46.344;17.786;2022-07-21T01:00:13;15.40;;;13.73;;
42414;SDS011;28058;46.344;17.786;2022-07-21T01:02:42;4.25;;;2.00;;
42414;SDS011;28058;46.344;17.786;2022-07-21T01:05:10;9.20;;;7.10;;
42414;SDS011;28058;46.344;17.786;2022-07-21T01:07:42;9.15;;;6.55;;
42414;SDS011;28058;46.344;17.786;2022-07-21T01:10:12;12.93;;;11.38;;
42414;SDS011;28058;46.344;17.786;2022-07-21T01:12:40;20.60;;;18.48;;
42414;SDS011;28058;46.344;17.786;2022-07-21T01:15:08;8.65;;;7.40;;
42414;SDS011;28058;46.344;17.786;2022-07-21T01:17:37;7.35;;;2.92;;
42414;SDS011;28058;46.344;17.786;2022-07-21T01:20:05;6.05;;;5.28;;
42414;SDS011;28058;46.344;17.786;2022-07-21T01:22:34;10.07;;;6.63;;
42414;SDS011;28058;46.344;17.786;2022-07-21T01:25:03;9.40;;;8.60;;
42414;SDS011;28058;46.344;17.786;2022-07-21T01:27:30;45.63;;;41.13;;
42414;SDS011;28058;46.344;17.786;2022-07-21T01:29:58;46.08;;;41.50;;
42414;SDS011;28058;46.344;17.786;2022-07-21T01:32:25;54.88;;;48.97;;
42414;SDS011;28058;46.344;17.786;2022-07-21T01:34:52;39.35;;;35.13;;
42414;SDS011;28058;46.344;17.786;2022-07-21T01:37:20;10.05;;;6.13;;
42414;SDS011;28058;46.344;17.786;2022-07-21T01:39:49;32.40;;;29.42;;
42414;SDS011;28058;46.344;17.786;2022-07-21T01:42:35;7.30;;;3.05;;
42414;SDS011;28058;46.344;17.786;2022-07-21T01:45:03;53.85;;;48.85;;
42414;SDS011;28058;46.344;17.786;2022-07-21T01:47:31;27.38;;;24.65;;
42414;SDS011;28058;46.344;17.786;2022-07-21T01:49:58;6.93;;;2.40;;
42414;SDS011;28058;46.344;17.786;2022-07-21T01:52:25;6.07;;;4.10;;
42414;SDS011;28058;46.344;17.786;2022-07-21T01:54:52;30.05;;;27.30;;
42414;SDS011;28058;46.344;17.786;2022-07-21T01:57:19;7.00;;;3.45;;
42414;SDS011;28058;46.344;17.786;2022-07-21T01:59:45;71.65;;;64.35;;
42414;SDS011;28058;46.344;17.786;2022-07-21T02:02:12;45.17;;;40.67;;
42414;SDS011;28058;46.344;17.786;2022-07-21T02:04:39;48.85;;;43.75;;
42414;SDS011;28058;46.344;17.786;2022-07-21T02:07:06;65.85;;;58.70;;
42414;SDS011;28058;46.344;17.786;2022-07-21T02:09:34;13.00;;;11.80;;
42414;SDS011;28058;46.344;17.786;2022-07-21T02:12:01;5.00;;;2.40;;
42414;SDS011;28058;46.344;17.786;2022-07-21T02:14:28;40.92;;;36.88;;
42414;SDS011;28058;46.344;17.786;2022-07-21T02:16:55;37.97;;;34.10;;
42414;SDS011;28058;46.344;17.786;2022-07-21T02:19:22;4.03;;;2.38;;
42414;SDS011;28058;46.344;17.786;2022-07-21T02:21:49;4.32;;;3.92;;
42414;SDS011;28058;46.344;17.786;2022-07-21T02:24:15;3.63;;;2.38;;
42414;SDS011;28058;46.344;17.786;2022-07-21T02:26:42;4.10;;;2.50;;
42414;SDS011;28058;46.344;17.786;2022-07-21T02:29:09;17.98;;;15.32;;
42414;SDS011;28058;46.344;17.786;2022-07-21T02:31:36;24.35;;;22.05;;
42414;SDS011;28058;46.344;17.786;2022-07-21T02:34:03;21.55;;;19.65;;
42414;SDS011;28058;46.344;17.786;2022-07-21T02:36:30;15.75;;;14.20;;
42414;SDS011;28058;46.344;17.786;2022-07-21T02:38:57;7.88;;;6.80;;
42414;SDS011;28058;46.344;17.786;2022-07-21T02:41:23;19.15;;;16.38;;
42414;SDS011;28058;46.344;17.786;2022-07-21T02:43:50;33.60;;;30.13;;
42414;SDS011;28058;46.344;17.786;2022-07-21T02:46:17;9.65;;;8.65;;
42414;SDS011;28058;46.344;17.786;2022-07-21T02:48:44;13.13;;;10.77;;
42414;SDS011;28058;46.344;17.786;2022-07-21T02:51:11;5.57;;;3.92;;
42414;SDS011;28058;46.344;17.786;2022-07-21T02:53:38;18.38;;;16.40;;
42414;SDS011;28058;46.344;17.786;2022-07-21T02:56:05;27.05;;;23.88;;
42414;SDS011;28058;46.344;17.786;2022-07-21T02:58:32;71.65;;;64.18;;
42414;SDS011;28058;46.344;17.786;2022-07-21T03:01:01;57.47;;;51.33;;
42414;SDS011;28058;46.344;17.786;2022-07-21T03:03:32;4.25;;;3.25;;
42414;SDS011;28058;46.344;17.786;2022-07-21T03:06:01;52.25;;;46.70;;
42414;SDS011;28058;46.344;17.786;2022-07-21T03:08:28;39.83;;;32.83;;
42414;SDS011;28058;46.344;17.786;2022-07-21T03:10:55;63.45;;;55.22;;
42414;SDS011;28058;46.344;17.786;2022-07-21T03:13:22;45.75;;;39.47;;
42414;SDS011;28058;46.344;17.786;2022-07-21T03:15:50;50.95;;;45.45;;
42414;SDS011;28058;46.344;17.786;2022-07-21T03:18:17;21.13;;;18.92;;
42414;SDS011;28058;46.344;17.786;2022-07-21T03:20:44;10.95;;;9.73;;
42414;SDS011;28058;46.344;17.786;2022-07-21T03:23:11;4.95;;;2.60;;
42414;SDS011;28058;46.344;17.786;2022-07-21T03:25:39;4.00;;;2.95;;
42414;SDS011;28058;46.344;17.786;2022-07-21T03:28:06;18.33;;;16.63;;
42414;SDS011;28058;46.344;17.786;2022-07-21T03:30:34;32.67;;;29.45;;
42414;SDS011;28058;46.344;17.786;2022-07-21T03:33:01;4.78;;;2.50;;
42414;SDS011;28058;46.344;17.786;2022-07-21T03:35:28;3.72;;;2.60;;
42414;SDS011;28058;46.344;17.786;2022-07-21T03:37:56;4.13;;;3.33;;
42414;SDS011;28058;46.344;17.786;2022-07-21T03:40:26;6.95;;;2.88;;
42414;SDS011;28058;46.344;17.786;2022-07-21T03:42:55;5.13;;;4.65;;
42414;SDS011;28058;46.344;17.786;2022-07-21T03:45:24;33.35;;;30.58;;
42414;SDS011;28058;46.344;17.786;2022-07-21T03:47:52;25.88;;;23.58;;
42414;SDS011;28058;46.344;17.786;2022-07-21T03:50:19;31.05;;;28.45;;
42414;SDS011;28058;46.344;17.786;2022-07-21T03:52:47;28.50;;;25.92;;
42414;SDS011;28058;46.344;17.786;2022-07-21T03:55:14;20.17;;;18.38;;
42414;SDS011;28058;46.344;17.786;2022-07-21T03:57:45;23.63;;;18.70;;
42414;SDS011;28058;46.344;17.786;2022-07-21T04:00:17;21.00;;;19.05;;
42414;SDS011;28058;46.344;17.786;2022-07-21T04:02:56;49.75;;;44.90;;
42414;SDS011;28058;46.344;17.786;2022-07-21T04:05:24;45.42;;;41.30;;
42414;SDS011;28058;46.344;17.786;2022-07-21T04:07:52;33.17;;;30.00;;
42414;SDS011;28058;46.344;17.786;2022-07-21T04:10:20;11.02;;;8.70;;
42414;SDS011;28058;46.344;17.786;2022-07-21T04:12:53;33.05;;;29.70;;
42414;SDS011;28058;46.344;17.786;2022-07-21T04:15:21;31.58;;;28.42;;
42414;SDS011;28058;46.344;17.786;2022-07-21T04:17:49;32.03;;;28.90;;
42414;SDS011;28058;46.344;17.786;2022-07-21T04:20:16;6.72;;;3.63;;
42414;SDS011;28058;46.344;17.786;2022-07-21T04:22:44;6.35;;;5.65;;
42414;SDS011;28058;46.344;17.786;2022-07-21T04:25:12;5.50;;;3.50;;
42414;SDS011;28058;46.344;17.786;2022-07-21T04:27:39;10.48;;;6.20;;
42414;SDS011;28058;46.344;17.786;2022-07-21T04:30:08;9.43;;;7.82;;
42414;SDS011;28058;46.344;17.786;2022-07-21T04:32:37;21.42;;;19.17;;
42414;SDS011;28058;46.344;17.786;2022-07-21T04:35:04;29.40;;;22.30;;
42414;SDS011;28058;46.344;17.786;2022-07-21T04:37:32;15.32;;;12.88;;
42414;SDS011;28058;46.344;17.786;2022-07-21T04:40:00;22.75;;;20.50;;
42414;SDS011;28058;46.344;17.786;2022-07-21T04:42:27;14.20;;;10.05;;
42414;SDS011;28058;46.344;17.786;2022-07-21T04:44:54;18.85;;;16.60;;
42414;SDS011;28058;46.344;17.786;2022-07-21T04:47:21;12.93;;;11.60;;
42414;SDS011;28058;46.344;17.786;2022-07-21T04:49:48;6.10;;;3.90;;
42414;SDS011;28058;46.344;17.786;2022-07-21T04:52:15;8.13;;;6.35;;
42414;SDS011;28058;46.344;17.786;2022-07-21T04:54:42;7.53;;;5.55;;
42414;SDS011;28058;46.344;17.786;2022-07-21T04:57:09;9.32;;;7.82;;
42414;SDS011;28058;46.344;17.786;2022-07-21T04:59:36;8.48;;;7.00;;
42414;SDS011;28058;46.344;17.786;2022-07-21T05:02:03;11.55;;;8.00;;
42414;SDS011;28058;46.344;17.786;2022-07-21T05:04:31;9.45;;;6.45;;
42414;SDS011;28058;46.344;17.786;2022-07-21T05:06:58;5.80;;;2.80;;
42414;SDS011;28058;46.344;17.786;2022-07-21T05:09:25;4.20;;;3.35;;
42414;SDS011;28058;46.344;17.786;2022-07-21T05:11:52;6.05;;;4.45;;
42414;SDS011;28058;46.344;17.786;2022-07-21T05:14:19;4.30;;;3.63;;
42414;SDS011;28058;46.344;17.786;2022-07-21T05:16:46;14.35;;;12.85;;
42414;SDS011;28058;46.344;17.786;2022-07-21T05:19:12;19.95;;;17.90;;
42414;SDS011;28058;46.344;17.786;2022-07-21T05:21:39;6.75;;;6.05;;
42414;SDS011;28058;46.344;17.786;2022-07-21T05:24:06;4.05;;;2.50;;
42414;SDS011;28058;46.344;17.786;2022-07-21T05:26:35;6.07;;;2.90;;
42414;SDS011;28058;46.344;17.786;2022-07-21T05:29:02;6.03;;;4.70;;
42414;SDS011;28058;46.344;17.786;2022-07-21T05:31:29;8.13;;;3.42;;
42414;SDS011;28058;46.344;17.786;2022-07-21T05:33:56;6.40;;;3.53;;
42414;SDS011;28058;46.344;17.786;2022-07-21T05:36:23;10.40;;;9.50;;
42414;SDS011;28058;46.344;17.786;2022-07-21T05:38:50;10.48;;;9.57;;
42414;SDS011;28058;46.344;17.786;2022-07-21T05:41:18;7.28;;;4.00;;
42414;SDS011;28058;46.344;17.786;2022-07-21T05:43:45;5.35;;;2.70;;
42414;SDS011;28058;46.344;17.786;2022-07-21T05:46:12;5.03;;;2.78;;
42414;SDS011;28058;46.344;17.786;2022-07-21T05:48:38;6.40;;;3.33;;
42414;SDS011;28058;46.344;17.786;2022-07-21T05:51:06;6.20;;;4.18;;
42414;SDS011;28058;46.344;17.786;2022-07-21T05:53:39;3.97;;;2.50;;
42414;SDS011;28058;46.344;17.786;2022-07-21T05:56:06;6.78;;;4.15;;
42414;SDS011;28058;46.344;17.786;2022-07-21T05:58:34;5.85;;;2.58;;
42414;SDS011;28058;46.344;17.786;2022-07-21T06:01:01;4.18;;;2.25;;
42414;SDS011;28058;46.344;17.786;2022-07-21T06:03:36;7.15;;;2.92;;
42414;SDS011;28058;46.344;17.786;2022-07-21T06:06:04;7.97;;;2.40;;
42414;SDS011;28058;46.344;17.786;2022-07-21T06:08:31;9.25;;;3.13;;
42414;SDS011;28058;46.344;17.786;2022-07-21T06:10:58;7.15;;;3.20;;
42414;SDS011;28058;46.344;17.786;2022-07-21T06:13:25;6.50;;;2.30;;
42414;SDS011;28058;46.344;17.786;2022-07-21T06:15:52;6.50;;;2.35;;
42414;SDS011;28058;46.344;17.786;2022-07-21T06:18:19;3.65;;;2.00;;
42414;SDS011;28058;46.344;17.786;2022-07-21T06:20:48;4.78;;;2.28;;
42414;SDS011;28058;46.344;17.786;2022-07-21T06:23:15;2.75;;;2.10;;
42414;SDS011;28058;46.344;17.786;2022-07-21T06:25:42;5.93;;;2.50;;
42414;SDS011;28058;46.344;17.786;2022-07-21T06:28:09;5.80;;;2.78;;
42414;SDS011;28058;46.344;17.786;2022-07-21T06:30:36;7.35;;;2.60;;
42414;SDS011;28058;46.344;17.786;2022-07-21T06:33:04;10.52;;;3.08;;
42414;SDS011;28058;46.344;17.786;2022-07-21T06:35:31;7.97;;;2.97;;
42414;SDS011;28058;46.344;17.786;2022-07-21T06:37:58;6.97;;;3.53;;
42414;SDS011;28058;46.344;17.786;2022-07-21T06:40:25;9.55;;;3.42;;
42414;SDS011;28058;46.344;17.786;2022-07-21T06:42:52;8.18;;;3.05;;
42414;SDS011;28058;46.344;17.786;2022-07-21T06:45:39;10.05;;;3.47;;
42414;SDS011;28058;46.344;17.786;2022-07-21T06:48:06;6.75;;;3.63;;
42414;SDS011;28058;46.344;17.786;2022-07-21T06:50:35;8.23;;;3.70;;
42414;SDS011;28058;46.344;17.786;2022-07-21T06:53:03;7.53;;;3.22;;
42414;SDS011;28058;46.344;17.786;2022-07-21T06:55:31;6.65;;;3.30;;
42414;SDS011;28058;46.344;17.786;2022-07-21T06:57:58;8.55;;;3.15;;
42414;SDS011;28058;46.344;17.786;2022-07-21T07:00:35;8.48;;;2.90;;
42414;SDS011;28058;46.344;17.786;2022-07-21T07:03:02;7.47;;;3.15;;
42414;SDS011;28058;46.344;17.786;2022-07-21T07:05:29;7.55;;;3.38;;
42414;SDS011;28058;46.344;17.786;2022-07-21T07:07:57;8.63;;;3.75;;
42414;SDS011;28058;46.344;17.786;2022-07-21T07:10:24;8.40;;;2.92;;
42414;SDS011;28058;46.344;17.786;2022-07-21T07:12:51;12.10;;;2.90;;
42414;SDS011;28058;46.344;17.786;2022-07-21T07:15:38;12.05;;;3.55;;
42414;SDS011;28058;46.344;17.786;2022-07-21T07:18:06;10.52;;;3.05;;
42414;SDS011;28058;46.344;17.786;2022-07-21T07:20:33;10.23;;;3.20;;
42414;SDS011;28058;46.344;17.786;2022-07-21T07:23:00;10.30;;;3.28;;
42414;SDS011;28058;46.344;17.786;2022-07-21T07:25:27;8.75;;;3.22;;
42414;SDS011;28058;46.344;17.786;2022-07-21T07:27:56;8.65;;;3.53;;
42414;SDS011;28058;46.344;17.786;2022-07-21T07:30:24;11.80;;;3.03;;
42414;SDS011;28058;46.344;17.786;2022-07-21T07:32:51;13.30;;;3.67;;
42414;SDS011;28058;46.344;17.786;2022-07-21T07:35:18;11.48;;;3.55;;
42414;SDS011;28058;46.344;17.786;2022-07-21T07:37:45;11.95;;;3.47;;
42414;SDS011;28058;46.344;17.786;2022-07-21T07:40:17;10.68;;;3.55;;
42414;SDS011;28058;46.344;17.786;2022-07-21T07:42:45;12.00;;;3.38;;
42414;SDS011;28058;46.344;17.786;2022-07-21T07:45:13;11.85;;;3.97;;
42414;SDS011;28058;46.344;17.786;2022-07-21T07:47:41;11.82;;;2.80;;
42414;SDS011;28058;46.344;17.786;2022-07-21T07:50:09;9.73;;;2.85;;
42414;SDS011;28058;46.344;17.786;2022-07-21T07:52:38;14.38;;;3.25;;
42414;SDS011;28058;46.344;17.786;2022-07-21T07:55:06;11.98;;;2.53;;
42414;SDS011;28058;46.344;17.786;2022-07-21T07:57:40;10.38;;;3.63;;
42414;SDS011;28058;46.344;17.786;2022-07-21T08:00:14;7.22;;;2.58;;
42414;SDS011;28058;46.344;17.786;2022-07-21T08:03:03;10.95;;;2.70;;
42414;SDS011;28058;46.344;17.786;2022-07-21T08:05:30;8.63;;;2.92;;
42414;SDS011;28058;46.344;17.786;2022-07-21T08:07:57;5.93;;;2.38;;
42414;SDS011;28058;46.344;17.786;2022-07-21T08:10:23;9.50;;;2.80;;
42414;SDS011;28058;46.344;17.786;2022-07-21T08:13:09;8.38;;;2.60;;
42414;SDS011;28058;46.344;17.786;2022-07-21T08:15:37;8.15;;;2.63;;
42414;SDS011;28058;46.344;17.786;2022-07-21T08:18:04;8.02;;;2.92;;
42414;SDS011;28058;46.344;17.786;2022-07-21T08:20:32;7.35;;;2.78;;
42414;SDS011;28058;46.344;17.786;2022-07-21T08:23:00;10.25;;;2.33;;
42414;SDS011;28058;46.344;17.786;2022-07-21T08:25:27;11.15;;;2.60;;
42414;SDS011;28058;46.344;17.786;2022-07-21T08:27:54;9.15;;;2.47;;
42414;SDS011;28058;46.344;17.786;2022-07-21T08:30:21;6.05;;;2.35;;
42414;SDS011;28058;46.344;17.786;2022-07-21T08:32:55;7.78;;;2.00;;
42414;SDS011;28058;46.344;17.786;2022-07-21T08:35:22;7.10;;;2.28;;
42414;SDS011;28058;46.344;17.786;2022-07-21T08:37:59;6.22;;;2.40;;
42414;SDS011;28058;46.344;17.786;2022-07-21T08:40:32;9.52;;;2.40;;
42414;SDS011;28058;46.344;17.786;2022-07-21T08:43:01;6.68;;;3.05;;
42414;SDS011;28058;46.344;17.786;2022-07-21T08:45:29;5.68;;;2.00;;
42414;SDS011;28058;46.344;17.786;2022-07-21T08:47:57;6.30;;;2.00;;
42414;SDS011;28058;46.344;17.786;2022-07-21T08:50:27;5.03;;;2.13;;
42414;SDS011;28058;46.344;17.786;2022-07-21T08:52:56;6.75;;;2.22;;
42414;SDS011;28058;46.344;17.786;2022-07-21T08:55:32;5.30;;;2.10;;
42414;SDS011;28058;46.344;17.786;2022-07-21T08:58:01;7.38;;;2.15;;
42414;SDS011;28058;46.344;17.786;2022-07-21T09:00:33;6.32;;;2.10;;
42414;SDS011;28058;46.344;17.786;2022-07-21T09:05:42;4.78;;;1.80;;
42414;SDS011;28058;46.344;17.786;2022-07-21T09:08:31;6.35;;;2.50;;
42414;SDS011;28058;46.344;17.786;2022-07-21T09:11:12;3.72;;;2.08;;
42414;SDS011;28058;46.344;17.786;2022-07-21T09:13:46;3.55;;;2.00;;
42414;SDS011;28058;46.344;17.786;2022-07-21T09:16:38;5.38;;;2.10;;
42414;SDS011;28058;46.344;17.786;2022-07-21T09:21:43;7.75;;;2.25;;
42414;SDS011;28058;46.344;17.786;2022-07-21T09:24:11;5.45;;;2.55;;
42414;SDS011;28058;46.344;17.786;2022-07-21T09:29:36;25.15;;;13.27;;
42414;SDS011;28058;46.344;17.786;2022-07-21T09:35:06;5.53;;;2.20;;
42414;SDS011;28058;46.344;17.786;2022-07-21T09:37:41;3.38;;;1.73;;
42414;SDS011;28058;46.344;17.786;2022-07-21T09:40:09;6.40;;;1.92;;
42414;SDS011;28058;46.344;17.786;2022-07-21T09:42:43;6.95;;;2.67;;
42414;SDS011;28058;46.344;17.786;2022-07-21T09:45:14;2.30;;;1.70;;
42414;SDS011;28058;46.344;17.786;2022-07-21T09:47:46;3.63;;;1.88;;
42414;SDS011;28058;46.344;17.786;2022-07-21T09:50:14;6.57;;;1.88;;
42414;SDS011;28058;46.344;17.786;2022-07-21T09:52:54;3.40;;;1.90;;
42414;SDS011;28058;46.344;17.786;2022-07-21T09:55:23;5.75;;;1.83;;
42414;SDS011;28058;46.344;17.786;2022-07-21T09:57:50;3.00;;;1.85;;
42414;SDS011;28058;46.344;17.786;2022-07-21T10:00:18;5.25;;;1.60;;
42414;SDS011;28058;46.344;17.786;2022-07-21T10:02:46;6.55;;;2.00;;
42414;SDS011;28058;46.344;17.786;2022-07-21T10:05:18;4.93;;;1.80;;
42414;SDS011;28058;46.344;17.786;2022-07-21T10:07:51;6.28;;;2.10;;
42414;SDS011;28058;46.344;17.786;2022-07-21T10:10:19;5.72;;;1.92;;
42414;SDS011;28058;46.344;17.786;2022-07-21T10:12:49;6.85;;;1.90;;
42414;SDS011;28058;46.344;17.786;2022-07-21T10:15:16;4.80;;;1.67;;
42414;SDS011;28058;46.344;17.786;2022-07-21T10:17:44;6.63;;;1.88;;
42414;SDS011;28058;46.344;17.786;2022-07-21T10:23:18;5.47;;;2.03;;
42414;SDS011;28058;46.344;17.786;2022-07-21T10:25:54;2.58;;;1.63;;
42414;SDS011;28058;46.344;17.786;2022-07-21T10:28:23;4.63;;;1.70;;
42414;SDS011;28058;46.344;17.786;2022-07-21T10:30:51;2.53;;;1.85;;
42414;SDS011;28058;46.344;17.786;2022-07-21T10:33:51;4.32;;;1.98;;
42414;SDS011;28058;46.344;17.786;2022-07-21T10:36:38;4.05;;;2.03;;
42414;SDS011;28058;46.344;17.786;2022-07-21T10:41:36;4.10;;;1.55;;
42414;SDS011;28058;46.344;17.786;2022-07-21T10:47:16;5.03;;;1.92;;
42414;SDS011;28058;46.344;17.786;2022-07-21T10:55:22;4.18;;;1.85;;
42414;SDS011;28058;46.344;17.786;2022-07-21T10:58:14;5.03;;;2.53;;
42414;SDS011;28058;46.344;17.786;2022-07-21T11:00:54;2.88;;;1.75;;
42414;SDS011;28058;46.344;17.786;2022-07-21T11:03:28;3.03;;;1.60;;
42414;SDS011;28058;46.344;17.786;2022-07-21T11:08:34;4.55;;;1.90;;
42414;SDS011;28058;46.344;17.786;2022-07-21T11:21:58;4.60;;;1.92;;
42414;SDS011;28058;46.344;17.786;2022-07-21T11:24:26;5.47;;;2.00;;
42414;SDS011;28058;46.344;17.786;2022-07-21T11:26:54;7.70;;;2.00;;
42414;SDS011;28058;46.344;17.786;2022-07-21T11:31:51;5.25;;;2.03;;
42414;SDS011;28058;46.344;17.786;2022-07-21T11:34:18;4.68;;;1.60;;
42414;SDS011;28058;46.344;17.786;2022-07-21T11:36:46;2.58;;;1.90;;
42414;SDS011;28058;46.344;17.786;2022-07-21T11:39:33;6.35;;;1.95;;
42414;SDS011;28058;46.344;17.786;2022-07-21T11:42:04;5.32;;;2.03;;
42414;SDS011;28058;46.344;17.786;2022-07-21T11:44:33;8.05;;;2.35;;
42414;SDS011;28058;46.344;17.786;2022-07-21T11:47:01;10.75;;;2.13;;
42414;SDS011;28058;46.344;17.786;2022-07-21T11:49:29;6.07;;;2.03;;
42414;SDS011;28058;46.344;17.786;2022-07-21T11:51:59;3.20;;;2.00;;
42414;SDS011;28058;46.344;17.786;2022-07-21T11:54:34;7.25;;;2.33;;
42414;SDS011;28058;46.344;17.786;2022-07-21T11:57:02;4.60;;;1.80;;
42414;SDS011;28058;46.344;17.786;2022-07-21T11:59:31;5.20;;;2.10;;
42414;SDS011;28058;46.344;17.786;2022-07-21T12:02:00;4.05;;;1.90;;
42414;SDS011;28058;46.344;17.786;2022-07-21T12:07:27;5.03;;;2.03;;
42414;SDS011;28058;46.344;17.786;2022-07-21T12:10:00;6.63;;;2.17;;
42414;SDS011;28058;46.344;17.786;2022-07-21T12:12:31;4.63;;;1.80;;
42414;SDS011;28058;46.344;17.786;2022-07-21T12:17:50;6.10;;;2.17;;
42414;SDS011;28058;46.344;17.786;2022-07-21T12:20:24;5.68;;;1.85;;
42414;SDS011;28058;46.344;17.786;2022-07-21T12:22:53;2.90;;;1.77;;
42414;SDS011;28058;46.344;17.786;2022-07-21T12:25:32;4.15;;;1.73;;
42414;SDS011;28058;46.344;17.786;2022-07-21T12:28:04;6.13;;;2.15;;
42414;SDS011;28058;46.344;17.786;2022-07-21T12:30:45;3.60;;;1.70;;
42414;SDS011;28058;46.344;17.786;2022-07-21T12:33:15;4.50;;;2.05;;
42414;SDS011;28058;46.344;17.786;2022-07-21T12:35:57;2.60;;;2.13;;
42414;SDS011;28058;46.344;17.786;2022-07-21T12:38:35;7.05;;;2.25;;
42414;SDS011;28058;46.344;17.786;2022-07-21T12:41:09;5.00;;;2.08;;
42414;SDS011;28058;46.344;17.786;2022-07-21T12:43:55;5.57;;;2.08;;
42414;SDS011;28058;46.344;17.786;2022-07-21T12:46:27;3.50;;;1.88;;
42414;SDS011;28058;46.344;17.786;2022-07-21T12:49:06;5.75;;;1.83;;
42414;SDS011;28058;46.344;17.786;2022-07-21T12:51:38;4.80;;;1.73;;
42414;SDS011;28058;46.344;17.786;2022-07-21T12:54:07;3.85;;;2.05;;
42414;SDS011;28058;46.344;17.786;2022-07-21T12:56:35;5.35;;;2.22;;
42414;SDS011;28058;46.344;17.786;2022-07-21T12:59:04;5.13;;;2.00;;
42414;SDS011;28058;46.344;17.786;2022-07-21T13:01:32;4.97;;;1.88;;
42414;SDS011;28058;46.344;17.786;2022-07-21T13:04:04;9.93;;;2.65;;
42414;SDS011;28058;46.344;17.786;2022-07-21T13:06:31;4.63;;;1.95;;
42414;SDS011;28058;46.344;17.786;2022-07-21T13:08:58;6.85;;;2.40;;
42414;SDS011;28058;46.344;17.786;2022-07-21T13:11:29;4.90;;;2.10;;
42414;SDS011;28058;46.344;17.786;2022-07-21T13:13:56;9.15;;;2.47;;
42414;SDS011;28058;46.344;17.786;2022-07-21T13:16:26;5.45;;;1.95;;
42414;SDS011;28058;46.344;17.786;2022-07-21T13:18:53;5.95;;;2.00;;
42414;SDS011;28058;46.344;17.786;2022-07-21T13:21:21;3.72;;;2.20;;
42414;SDS011;28058;46.344;17.786;2022-07-21T13:23:47;4.82;;;1.85;;
42414;SDS011;28058;46.344;17.786;2022-07-21T13:26:18;3.63;;;1.75;;
42414;SDS011;28058;46.344;17.786;2022-07-21T13:28:45;10.75;;;2.30;;
42414;SDS011;28058;46.344;17.786;2022-07-21T13:31:12;4.47;;;2.00;;
42414;SDS011;28058;46.344;17.786;2022-07-21T13:33:39;3.95;;;1.75;;
42414;SDS011;28058;46.344;17.786;2022-07-21T13:36:07;5.68;;;1.85;;
42414;SDS011;28058;46.344;17.786;2022-07-21T13:38:35;4.50;;;2.00;;
42414;SDS011;28058;46.344;17.786;2022-07-21T13:41:02;6.55;;;1.73;;
42414;SDS011;28058;46.344;17.786;2022-07-21T13:43:49;6.40;;;1.98;;
42414;SDS011;28058;46.344;17.786;2022-07-21T13:46:17;5.43;;;2.10;;
42414;SDS011;28058;46.344;17.786;2022-07-21T13:48:45;3.53;;;1.98;;
42414;SDS011;28058;46.344;17.786;2022-07-21T13:51:12;3.70;;;1.85;;
42414;SDS011;28058;46.344;17.786;2022-07-21T13:53:41;4.03;;;2.05;;
42414;SDS011;28058;46.344;17.786;2022-07-21T13:56:09;2.92;;;1.85;;
42414;SDS011;28058;46.344;17.786;2022-07-21T13:58:36;3.35;;;2.05;;
42414;SDS011;28058;46.344;17.786;2022-07-21T14:01:04;6.38;;;2.10;;
42414;SDS011;28058;46.344;17.786;2022-07-21T14:03:33;6.47;;;2.05;;
42414;SDS011;28058;46.344;17.786;2022-07-21T14:06:02;3.47;;;1.85;;
42414;SDS011;28058;46.344;17.786;2022-07-21T14:08:29;5.97;;;2.03;;
42414;SDS011;28058;46.344;17.786;2022-07-21T14:10:56;6.78;;;1.85;;
42414;SDS011;28058;46.344;17.786;2022-07-21T14:13:23;7.05;;;2.15;;
42414;SDS011;28058;46.344;17.786;2022-07-21T14:15:51;4.03;;;1.85;;
42414;SDS011;28058;46.344;17.786;2022-07-21T14:18:18;4.30;;;1.90;;
42414;SDS011;28058;46.344;17.786;2022-07-21T14:20:45;5.13;;;2.05;;
42414;SDS011;28058;46.344;17.786;2022-07-21T14:23:14;5.70;;;2.42;;
42414;SDS011;28058;46.344;17.786;2022-07-21T14:25:41;3.50;;;1.95;;
42414;SDS011;28058;46.344;17.786;2022-07-21T14:28:08;5.55;;;2.15;;
42414;SDS011;28058;46.344;17.786;2022-07-21T14:30:35;6.88;;;2.65;;
42414;SDS011;28058;46.344;17.786;2022-07-21T14:33:02;6.80;;;2.28;;
42414;SDS011;28058;46.344;17.786;2022-07-21T14:35:29;4.00;;;2.13;;
42414;SDS011;28058;46.344;17.786;2022-07-21T14:37:57;4.20;;;2.10;;
42414;SDS011;28058;46.344;17.786;2022-07-21T14:40:23;4.43;;;2.08;;
42414;SDS011;28058;46.344;17.786;2022-07-21T14:42:51;6.97;;;2.30;;
42414;SDS011;28058;46.344;17.786;2022-07-21T14:45:21;4.60;;;2.40;;
42414;SDS011;28058;46.344;17.786;2022-07-21T14:47:50;6.57;;;1.85;;
42414;SDS011;28058;46.344;17.786;2022-07-21T14:50:19;5.57;;;2.38;;
42414;SDS011;28058;46.344;17.786;2022-07-21T14:52:53;6.25;;;2.10;;
42414;SDS011;28058;46.344;17.786;2022-07-21T14:55:22;3.88;;;2.10;;
42414;SDS011;28058;46.344;17.786;2022-07-21T14:57:52;3.15;;;1.88;;
42414;SDS011;28058;46.344;17.786;2022-07-21T15:00:20;4.63;;;2.45;;
42414;SDS011;28058;46.344;17.786;2022-07-21T15:02:48;5.28;;;2.08;;
42414;SDS011;28058;46.344;17.786;2022-07-21T15:05:16;5.15;;;1.92;;
42414;SDS011;28058;46.344;17.786;2022-07-21T15:07:43;3.97;;;2.17;;
42414;SDS011;28058;46.344;17.786;2022-07-21T15:10:10;3.95;;;1.90;;
42414;SDS011;28058;46.344;17.786;2022-07-21T15:12:37;7.38;;;2.28;;
42414;SDS011;28058;46.344;17.786;2022-07-21T15:15:06;7.05;;;1.95;;
42414;SDS011;28058;46.344;17.786;2022-07-21T15:17:33;3.92;;;1.92;;
42414;SDS011;28058;46.344;17.786;2022-07-21T15:20:00;5.20;;;1.67;;
42414;SDS011;28058;46.344;17.786;2022-07-21T15:22:27;3.45;;;1.90;;
42414;SDS011;28058;46.344;17.786;2022-07-21T15:24:58;8.15;;;2.50;;
42414;SDS011;28058;46.344;17.786;2022-07-21T15:27:27;6.68;;;2.05;;